Terminal Aerodrome Forecast
Issued by NWS

Home | Current Version | Previous Version | Text Only | Print | Product List | Glossary On
Versions: 1 2 3 4 5 6 7 8 9 10 11 12 13 14 15 16
000
FTUS43 KILX 282300
TAFBMI
TAF
KBMI 282331Z 2900/2924 12006KT P6SM SKC
     FM290500 17013KT P6SM BKN200
     FM291200 18020G28KT P6SM SCT040 OVC100
     FM291500 19023G30KT P6SM VCSH BKN030=

USA.gov is the U.S. government's official web portal to all federal, state and local government web resources and services.